sensor_id;sensor_type;location;lat;lon;timestamp;temperature;humidity
23520;DHT22;11936;50.820;4.336;2023-09-07T00:01:20;23.70;99.90
23520;DHT22;11936;50.820;4.336;2023-09-07T00:03:45;23.70;99.90
23520;DHT22;11936;50.820;4.336;2023-09-07T00:06:11;23.70;99.90
23520;DHT22;11936;50.820;4.336;2023-09-07T00:08:37;23.70;99.90
23520;DHT22;11936;50.820;4.336;2023-09-07T00:11:03;23.60;99.90
23520;DHT22;11936;50.820;4.336;2023-09-07T00:13:29;23.60;99.90
23520;DHT22;11936;50.820;4.336;2023-09-07T00:15:59;23.50;99.90
23520;DHT22;11936;50.820;4.336;2023-09-07T00:18:25;23.40;99.90
23520;DHT22;11936;50.820;4.336;2023-09-07T00:20:50;23.40;99.90
23520;DHT22;11936;50.820;4.336;2023-09-07T00:23:16;23.40;99.90
23520;DHT22;11936;50.820;4.336;2023-09-07T00:25:42;23.30;99.90
23520;DHT22;11936;50.820;4.336;2023-09-07T00:28:07;23.30;99.90
23520;DHT22;11936;50.820;4.336;2023-09-07T00:30:33;23.20;99.90
23520;DHT22;11936;50.820;4.336;2023-09-07T00:32:58;23.20;99.90
23520;DHT22;11936;50.820;4.336;2023-09-07T00:35:24;23.30;99.90
23520;DHT22;11936;50.820;4.336;2023-09-07T00:37:49;23.30;99.90
23520;DHT22;11936;50.820;4.336;2023-09-07T00:40:16;23.30;99.90
23520;DHT22;11936;50.820;4.336;2023-09-07T00:42:42;23.30;99.90
23520;DHT22;11936;50.820;4.336;2023-09-07T00:45:08;23.40;99.90
23520;DHT22;11936;50.820;4.336;2023-09-07T00:47:34;23.40;99.90
23520;DHT22;11936;50.820;4.336;2023-09-07T00:50:02;23.40;99.90
23520;DHT22;11936;50.820;4.336;2023-09-07T00:52:28;23.30;99.90
23520;DHT22;11936;50.820;4.336;2023-09-07T00:54:54;23.30;99.90
23520;DHT22;11936;50.820;4.336;2023-09-07T00:57:20;23.20;99.90
23520;DHT22;11936;50.820;4.336;2023-09-07T00:59:46;23.20;99.90
23520;DHT22;11936;50.820;4.336;2023-09-07T01:02:11;23.20;99.90
23520;DHT22;11936;50.820;4.336;2023-09-07T01:04:37;23.20;99.90
23520;DHT22;11936;50.820;4.336;2023-09-07T01:07:13;23.30;99.90
23520;DHT22;11936;50.820;4.336;2023-09-07T01:09:41;23.30;99.90
23520;DHT22;11936;50.820;4.336;2023-09-07T01:12:07;23.40;99.90
23520;DHT22;11936;50.820;4.336;2023-09-07T01:14:36;23.40;99.90
23520;DHT22;11936;50.820;4.336;2023-09-07T01:17:03;23.40;99.90
23520;DHT22;11936;50.820;4.336;2023-09-07T01:19:30;23.40;99.90
23520;DHT22;11936;50.820;4.336;2023-09-07T01:21:56;23.40;99.90
23520;DHT22;11936;50.820;4.336;2023-09-07T01:24:22;23.40;99.90
23520;DHT22;11936;50.820;4.336;2023-09-07T01:26:49;23.40;99.90
23520;DHT22;11936;50.820;4.336;2023-09-07T01:29:15;23.40;99.90
23520;DHT22;11936;50.820;4.336;2023-09-07T01:31:42;23.30;99.90
23520;DHT22;11936;50.820;4.336;2023-09-07T01:34:08;23.30;99.90
23520;DHT22;11936;50.820;4.336;2023-09-07T01:36:34;23.30;99.90
23520;DHT22;11936;50.820;4.336;2023-09-07T01:39:00;23.30;99.90
23520;DHT22;11936;50.820;4.336;2023-09-07T01:41:26;23.20;99.90
23520;DHT22;11936;50.820;4.336;2023-09-07T01:43:52;23.30;99.90
23520;DHT22;11936;50.820;4.336;2023-09-07T01:46:18;23.20;99.90
23520;DHT22;11936;50.820;4.336;2023-09-07T01:48:43;23.20;99.90
23520;DHT22;11936;50.820;4.336;2023-09-07T01:51:09;23.20;99.90
23520;DHT22;11936;50.820;4.336;2023-09-07T01:53:34;23.20;99.90
23520;DHT22;11936;50.820;4.336;2023-09-07T01:56:00;23.20;99.90
23520;DHT22;11936;50.820;4.336;2023-09-07T01:58:26;23.10;99.90
23520;DHT22;11936;50.820;4.336;2023-09-07T02:00:57;23.10;99.90
23520;DHT22;11936;50.820;4.336;2023-09-07T02:03:24;23.10;99.90
23520;DHT22;11936;50.820;4.336;2023-09-07T02:05:49;23.20;99.90
23520;DHT22;11936;50.820;4.336;2023-09-07T02:08:15;23.20;99.90
23520;DHT22;11936;50.820;4.336;2023-09-07T02:10:40;23.10;99.90
23520;DHT22;11936;50.820;4.336;2023-09-07T02:13:06;23.10;99.90
23520;DHT22;11936;50.820;4.336;2023-09-07T02:15:32;23.10;99.90
23520;DHT22;11936;50.820;4.336;2023-09-07T02:17:58;23.10;99.90
23520;DHT22;11936;50.820;4.336;2023-09-07T02:20:24;23.10;99.90
23520;DHT22;11936;50.820;4.336;2023-09-07T02:22:50;23.00;99.90
23520;DHT22;11936;50.820;4.336;2023-09-07T02:25:15;23.00;99.90
23520;DHT22;11936;50.820;4.336;2023-09-07T02:27:41;23.00;99.90
23520;DHT22;11936;50.820;4.336;2023-09-07T02:30:07;22.90;99.90
23520;DHT22;11936;50.820;4.336;2023-09-07T02:32:33;23.00;99.90
23520;DHT22;11936;50.820;4.336;2023-09-07T02:34:59;23.00;99.90
23520;DHT22;11936;50.820;4.336;2023-09-07T02:37:24;22.90;99.90
23520;DHT22;11936;50.820;4.336;2023-09-07T02:39:50;22.90;99.90
23520;DHT22;11936;50.820;4.336;2023-09-07T02:42:16;22.90;99.90
23520;DHT22;11936;50.820;4.336;2023-09-07T02:44:41;22.90;99.90
23520;DHT22;11936;50.820;4.336;2023-09-07T02:47:07;22.80;99.90
23520;DHT22;11936;50.820;4.336;2023-09-07T02:49:33;22.80;99.90
23520;DHT22;11936;50.820;4.336;2023-09-07T02:51:58;22.70;99.90
23520;DHT22;11936;50.820;4.336;2023-09-07T02:54:24;22.70;99.90
23520;DHT22;11936;50.820;4.336;2023-09-07T02:56:49;22.80;99.90
23520;DHT22;11936;50.820;4.336;2023-09-07T02:59:15;22.80;99.90
23520;DHT22;11936;50.820;4.336;2023-09-07T03:01:41;22.80;99.90
23520;DHT22;11936;50.820;4.336;2023-09-07T03:04:06;22.80;99.90
23520;DHT22;11936;50.820;4.336;2023-09-07T03:06:32;22.70;99.90
23520;DHT22;11936;50.820;4.336;2023-09-07T03:08:58;22.60;99.90
23520;DHT22;11936;50.820;4.336;2023-09-07T03:11:24;22.50;99.90
23520;DHT22;11936;50.820;4.336;2023-09-07T03:13:49;22.60;99.90
23520;DHT22;11936;50.820;4.336;2023-09-07T03:16:15;22.50;99.90
23520;DHT22;11936;50.820;4.336;2023-09-07T03:18:41;22.50;99.90
23520;DHT22;11936;50.820;4.336;2023-09-07T03:21:06;22.60;99.90
23520;DHT22;11936;50.820;4.336;2023-09-07T03:23:33;22.60;99.90
23520;DHT22;11936;50.820;4.336;2023-09-07T03:25:59;22.60;99.90
23520;DHT22;11936;50.820;4.336;2023-09-07T03:28:25;22.60;99.90
23520;DHT22;11936;50.820;4.336;2023-09-07T03:30:52;22.60;99.90
23520;DHT22;11936;50.820;4.336;2023-09-07T03:33:18;22.60;99.90
23520;DHT22;11936;50.820;4.336;2023-09-07T03:35:44;22.50;99.90
23520;DHT22;11936;50.820;4.336;2023-09-07T03:38:10;22.50;99.90
23520;DHT22;11936;50.820;4.336;2023-09-07T03:40:36;22.50;99.90
23520;DHT22;11936;50.820;4.336;2023-09-07T03:43:02;22.40;99.90
23520;DHT22;11936;50.820;4.336;2023-09-07T03:45:27;22.40;99.90
23520;DHT22;11936;50.820;4.336;2023-09-07T03:47:53;22.40;99.90
23520;DHT22;11936;50.820;4.336;2023-09-07T03:50:18;22.40;99.90
23520;DHT22;11936;50.820;4.336;2023-09-07T03:52:44;22.40;99.90
23520;DHT22;11936;50.820;4.336;2023-09-07T03:55:10;22.30;99.90
23520;DHT22;11936;50.820;4.336;2023-09-07T03:57:35;22.30;99.90
23520;DHT22;11936;50.820;4.336;2023-09-07T04:00:02;22.20;99.90
23520;DHT22;11936;50.820;4.336;2023-09-07T04:02:32;22.20;99.90
23520;DHT22;11936;50.820;4.336;2023-09-07T04:04:58;22.10;99.90
23520;DHT22;11936;50.820;4.336;2023-09-07T04:07:23;22.00;99.90
23520;DHT22;11936;50.820;4.336;2023-09-07T04:09:50;22.10;99.90
23520;DHT22;11936;50.820;4.336;2023-09-07T04:12:16;22.00;99.90
23520;DHT22;11936;50.820;4.336;2023-09-07T04:14:41;22.00;99.90
23520;DHT22;11936;50.820;4.336;2023-09-07T04:17:08;22.00;99.90
23520;DHT22;11936;50.820;4.336;2023-09-07T04:19:33;22.10;99.90
23520;DHT22;11936;50.820;4.336;2023-09-07T04:21:59;22.10;99.90
23520;DHT22;11936;50.820;4.336;2023-09-07T04:24:25;22.10;99.90
23520;DHT22;11936;50.820;4.336;2023-09-07T04:26:52;22.10;99.90
23520;DHT22;11936;50.820;4.336;2023-09-07T04:29:18;22.10;99.90
23520;DHT22;11936;50.820;4.336;2023-09-07T04:31:43;22.10;99.90
23520;DHT22;11936;50.820;4.336;2023-09-07T04:34:09;22.10;99.90
23520;DHT22;11936;50.820;4.336;2023-09-07T04:36:34;22.00;99.90
23520;DHT22;11936;50.820;4.336;2023-09-07T04:39:00;22.00;99.90
23520;DHT22;11936;50.820;4.336;2023-09-07T04:41:26;22.00;99.90
23520;DHT22;11936;50.820;4.336;2023-09-07T04:43:51;22.00;99.90
23520;DHT22;11936;50.820;4.336;2023-09-07T04:46:17;22.00;99.90
23520;DHT22;11936;50.820;4.336;2023-09-07T04:48:46;21.90;99.90
23520;DHT22;11936;50.820;4.336;2023-09-07T04:51:12;21.90;99.90
23520;DHT22;11936;50.820;4.336;2023-09-07T04:53:38;21.90;99.90
23520;DHT22;11936;50.820;4.336;2023-09-07T04:56:05;21.90;99.90
23520;DHT22;11936;50.820;4.336;2023-09-07T04:58:31;21.80;99.90
23520;DHT22;11936;50.820;4.336;2023-09-07T05:01:05;21.70;99.90
23520;DHT22;11936;50.820;4.336;2023-09-07T05:03:31;21.70;99.90
23520;DHT22;11936;50.820;4.336;2023-09-07T05:05:56;21.70;99.90
23520;DHT22;11936;50.820;4.336;2023-09-07T05:08:23;21.70;99.90
23520;DHT22;11936;50.820;4.336;2023-09-07T05:10:55;21.80;99.90
23520;DHT22;11936;50.820;4.336;2023-09-07T05:13:21;21.80;99.90
23520;DHT22;11936;50.820;4.336;2023-09-07T05:15:48;21.80;99.90
23520;DHT22;11936;50.820;4.336;2023-09-07T05:18:14;21.80;99.90
23520;DHT22;11936;50.820;4.336;2023-09-07T05:20:40;21.80;99.90
23520;DHT22;11936;50.820;4.336;2023-09-07T05:23:05;21.70;99.90
23520;DHT22;11936;50.820;4.336;2023-09-07T05:25:31;21.70;99.90
23520;DHT22;11936;50.820;4.336;2023-09-07T05:27:58;21.60;99.90
23520;DHT22;11936;50.820;4.336;2023-09-07T05:30:23;21.70;99.90
23520;DHT22;11936;50.820;4.336;2023-09-07T05:32:49;21.60;99.90
23520;DHT22;11936;50.820;4.336;2023-09-07T05:35:14;21.60;99.90
23520;DHT22;11936;50.820;4.336;2023-09-07T05:37:42;21.60;99.90
23520;DHT22;11936;50.820;4.336;2023-09-07T05:40:08;21.60;99.90
23520;DHT22;11936;50.820;4.336;2023-09-07T05:42:34;21.50;99.90
23520;DHT22;11936;50.820;4.336;2023-09-07T05:44:59;21.60;99.90
23520;DHT22;11936;50.820;4.336;2023-09-07T05:47:25;21.60;99.90
23520;DHT22;11936;50.820;4.336;2023-09-07T05:49:51;21.50;99.90
23520;DHT22;11936;50.820;4.336;2023-09-07T05:52:17;21.60;99.90
23520;DHT22;11936;50.820;4.336;2023-09-07T05:54:43;21.60;99.90
23520;DHT22;11936;50.820;4.336;2023-09-07T05:57:08;21.60;99.90
23520;DHT22;11936;50.820;4.336;2023-09-07T05:59:34;21.50;99.90
23520;DHT22;11936;50.820;4.336;2023-09-07T06:02:00;21.60;99.90
23520;DHT22;11936;50.820;4.336;2023-09-07T06:04:29;21.50;99.90
23520;DHT22;11936;50.820;4.336;2023-09-07T06:06:55;21.60;99.90
23520;DHT22;11936;50.820;4.336;2023-09-07T06:09:20;21.60;99.90
23520;DHT22;11936;50.820;4.336;2023-09-07T06:11:46;21.60;99.90
23520;DHT22;11936;50.820;4.336;2023-09-07T06:14:12;21.60;99.90
23520;DHT22;11936;50.820;4.336;2023-09-07T06:16:37;21.50;99.90
23520;DHT22;11936;50.820;4.336;2023-09-07T06:19:03;21.60;99.90
23520;DHT22;11936;50.820;4.336;2023-09-07T06:21:28;21.70;99.90
23520;DHT22;11936;50.820;4.336;2023-09-07T06:23:54;21.60;99.90
23520;DHT22;11936;50.820;4.336;2023-09-07T06:26:19;21.60;99.90
23520;DHT22;11936;50.820;4.336;2023-09-07T06:28:45;21.60;99.90
23520;DHT22;11936;50.820;4.336;2023-09-07T06:31:11;21.70;99.90
23520;DHT22;11936;50.820;4.336;2023-09-07T06:33:36;21.70;99.90
23520;DHT22;11936;50.820;4.336;2023-09-07T06:36:02;21.70;99.90
23520;DHT22;11936;50.820;4.336;2023-09-07T06:38:28;21.80;99.90
23520;DHT22;11936;50.820;4.336;2023-09-07T06:40:53;21.80;99.90
23520;DHT22;11936;50.820;4.336;2023-09-07T06:43:19;21.80;99.90
23520;DHT22;11936;50.820;4.336;2023-09-07T06:45:45;21.90;99.90
23520;DHT22;11936;50.820;4.336;2023-09-07T06:48:10;21.80;99.90
23520;DHT22;11936;50.820;4.336;2023-09-07T06:50:37;21.80;99.90
23520;DHT22;11936;50.820;4.336;2023-09-07T06:53:03;21.70;99.90
23520;DHT22;11936;50.820;4.336;2023-09-07T06:55:29;21.50;99.90
23520;DHT22;11936;50.820;4.336;2023-09-07T06:57:55;21.50;99.90
23520;DHT22;11936;50.820;4.336;2023-09-07T07:00:21;21.60;99.90
23520;DHT22;11936;50.820;4.336;2023-09-07T07:02:47;21.50;99.90
23520;DHT22;11936;50.820;4.336;2023-09-07T07:05:12;21.60;99.90
23520;DHT22;11936;50.820;4.336;2023-09-07T07:07:39;21.70;99.90
23520;DHT22;11936;50.820;4.336;2023-09-07T07:10:06;21.80;99.90
23520;DHT22;11936;50.820;4.336;2023-09-07T07:12:32;21.90;99.90
23520;DHT22;11936;50.820;4.336;2023-09-07T07:15:00;21.80;99.90
23520;DHT22;11936;50.820;4.336;2023-09-07T07:17:27;21.90;99.90
23520;DHT22;11936;50.820;4.336;2023-09-07T07:19:53;21.90;99.90
23520;DHT22;11936;50.820;4.336;2023-09-07T07:22:18;21.90;99.90
23520;DHT22;11936;50.820;4.336;2023-09-07T07:24:44;22.00;99.90
23520;DHT22;11936;50.820;4.336;2023-09-07T07:27:10;22.10;99.90
23520;DHT22;11936;50.820;4.336;2023-09-07T07:29:36;22.10;99.90
23520;DHT22;11936;50.820;4.336;2023-09-07T07:32:03;22.20;99.90
23520;DHT22;11936;50.820;4.336;2023-09-07T07:34:29;22.20;99.90
23520;DHT22;11936;50.820;4.336;2023-09-07T07:36:55;22.30;99.90
23520;DHT22;11936;50.820;4.336;2023-09-07T07:39:20;22.30;99.90
23520;DHT22;11936;50.820;4.336;2023-09-07T07:41:46;22.30;99.90
23520;DHT22;11936;50.820;4.336;2023-09-07T07:44:12;22.30;99.90
23520;DHT22;11936;50.820;4.336;2023-09-07T07:46:37;22.30;99.90
23520;DHT22;11936;50.820;4.336;2023-09-07T07:49:03;22.40;99.90
23520;DHT22;11936;50.820;4.336;2023-09-07T07:51:30;22.50;99.90
23520;DHT22;11936;50.820;4.336;2023-09-07T07:53:56;22.50;99.90
23520;DHT22;11936;50.820;4.336;2023-09-07T07:56:23;22.60;99.90
23520;DHT22;11936;50.820;4.336;2023-09-07T07:58:49;22.60;99.90
23520;DHT22;11936;50.820;4.336;2023-09-07T08:01:19;22.70;99.90
23520;DHT22;11936;50.820;4.336;2023-09-07T08:03:45;22.70;99.90
23520;DHT22;11936;50.820;4.336;2023-09-07T08:06:11;22.70;99.90
23520;DHT22;11936;50.820;4.336;2023-09-07T08:08:38;22.70;99.90
23520;DHT22;11936;50.820;4.336;2023-09-07T08:11:04;22.80;99.90
23520;DHT22;11936;50.820;4.336;2023-09-07T08:13:34;22.70;99.90
23520;DHT22;11936;50.820;4.336;2023-09-07T08:16:04;22.80;99.90
23520;DHT22;11936;50.820;4.336;2023-09-07T08:18:31;22.90;99.90
23520;DHT22;11936;50.820;4.336;2023-09-07T08:20:57;23.00;99.90
23520;DHT22;11936;50.820;4.336;2023-09-07T08:23:23;23.10;99.90
23520;DHT22;11936;50.820;4.336;2023-09-07T08:25:51;23.10;99.90
23520;DHT22;11936;50.820;4.336;2023-09-07T08:28:17;23.20;99.90
23520;DHT22;11936;50.820;4.336;2023-09-07T08:30:44;23.20;99.90
23520;DHT22;11936;50.820;4.336;2023-09-07T08:33:10;23.20;99.90
23520;DHT22;11936;50.820;4.336;2023-09-07T08:35:35;23.30;99.90
23520;DHT22;11936;50.820;4.336;2023-09-07T08:38:03;23.40;99.90
23520;DHT22;11936;50.820;4.336;2023-09-07T08:40:33;23.40;99.90
23520;DHT22;11936;50.820;4.336;2023-09-07T08:43:03;23.50;99.90
23520;DHT22;11936;50.820;4.336;2023-09-07T08:45:30;23.50;99.90
23520;DHT22;11936;50.820;4.336;2023-09-07T08:47:57;23.60;99.90
23520;DHT22;11936;50.820;4.336;2023-09-07T08:50:24;23.60;99.90
23520;DHT22;11936;50.820;4.336;2023-09-07T08:52:52;23.60;99.90
23520;DHT22;11936;50.820;4.336;2023-09-07T08:55:18;23.70;99.90
23520;DHT22;11936;50.820;4.336;2023-09-07T08:57:43;23.70;99.90
23520;DHT22;11936;50.820;4.336;2023-09-07T09:00:09;23.80;99.90
23520;DHT22;11936;50.820;4.336;2023-09-07T09:02:41;23.80;99.90
23520;DHT22;11936;50.820;4.336;2023-09-07T09:05:09;23.90;99.90
23520;DHT22;11936;50.820;4.336;2023-09-07T09:07:37;23.90;99.90
23520;DHT22;11936;50.820;4.336;2023-09-07T09:10:05;23.90;99.90
23520;DHT22;11936;50.820;4.336;2023-09-07T09:12:31;23.90;99.90
23520;DHT22;11936;50.820;4.336;2023-09-07T09:14:58;23.90;99.90
23520;DHT22;11936;50.820;4.336;2023-09-07T09:17:24;24.00;99.90
23520;DHT22;11936;50.820;4.336;2023-09-07T09:19:50;24.00;99.90
23520;DHT22;11936;50.820;4.336;2023-09-07T09:22:15;24.20;99.90
23520;DHT22;11936;50.820;4.336;2023-09-07T09:24:41;24.20;99.90
23520;DHT22;11936;50.820;4.336;2023-09-07T09:27:07;24.30;99.90
23520;DHT22;11936;50.820;4.336;2023-09-07T09:29:33;24.30;99.90
23520;DHT22;11936;50.820;4.336;2023-09-07T09:32:06;24.40;99.90
23520;DHT22;11936;50.820;4.336;2023-09-07T09:34:33;24.50;99.90
23520;DHT22;11936;50.820;4.336;2023-09-07T09:37:00;24.60;99.90
23520;DHT22;11936;50.820;4.336;2023-09-07T09:39:26;24.60;99.90
23520;DHT22;11936;50.820;4.336;2023-09-07T09:41:52;24.60;99.90
23520;DHT22;11936;50.820;4.336;2023-09-07T09:44:21;24.60;99.90
23520;DHT22;11936;50.820;4.336;2023-09-07T09:46:47;24.70;99.90
23520;DHT22;11936;50.820;4.336;2023-09-07T09:49:15;24.70;99.90
23520;DHT22;11936;50.820;4.336;2023-09-07T09:51:42;24.80;99.90
23520;DHT22;11936;50.820;4.336;2023-09-07T09:54:09;24.80;99.90
23520;DHT22;11936;50.820;4.336;2023-09-07T09:56:35;24.90;99.90
23520;DHT22;11936;50.820;4.336;2023-09-07T09:59:00;24.90;99.90
23520;DHT22;11936;50.820;4.336;2023-09-07T10:01:26;24.90;99.90
23520;DHT22;11936;50.820;4.336;2023-09-07T10:03:53;24.90;99.90
23520;DHT22;11936;50.820;4.336;2023-09-07T10:06:25;24.80;99.90
23520;DHT22;11936;50.820;4.336;2023-09-07T10:09:03;24.90;99.90
23520;DHT22;11936;50.820;4.336;2023-09-07T10:11:36;25.00;99.90
23520;DHT22;11936;50.820;4.336;2023-09-07T10:14:07;25.00;99.90
23520;DHT22;11936;50.820;4.336;2023-09-07T10:16:45;25.20;99.90
23520;DHT22;11936;50.820;4.336;2023-09-07T10:19:23;25.20;99.90
23520;DHT22;11936;50.820;4.336;2023-09-07T10:21:49;25.20;99.90
23520;DHT22;11936;50.820;4.336;2023-09-07T10:24:25;25.30;99.90
23520;DHT22;11936;50.820;4.336;2023-09-07T10:29:27;25.40;99.90
23520;DHT22;11936;50.820;4.336;2023-09-07T10:31:53;25.40;99.90
23520;DHT22;11936;50.820;4.336;2023-09-07T10:34:19;25.50;99.90
23520;DHT22;11936;50.820;4.336;2023-09-07T10:36:46;25.50;99.90
23520;DHT22;11936;50.820;4.336;2023-09-07T10:39:12;25.50;99.90
23520;DHT22;11936;50.820;4.336;2023-09-07T10:41:45;25.50;99.90
23520;DHT22;11936;50.820;4.336;2023-09-07T10:44:11;25.50;99.90
23520;DHT22;11936;50.820;4.336;2023-09-07T10:46:38;25.60;99.90
23520;DHT22;11936;50.820;4.336;2023-09-07T10:49:08;25.60;99.90
23520;DHT22;11936;50.820;4.336;2023-09-07T10:51:44;25.60;99.90
23520;DHT22;11936;50.820;4.336;2023-09-07T10:54:17;25.70;99.90
23520;DHT22;11936;50.820;4.336;2023-09-07T10:56:45;25.70;99.90
23520;DHT22;11936;50.820;4.336;2023-09-07T10:59:14;25.70;99.90
23520;DHT22;11936;50.820;4.336;2023-09-07T11:01:39;25.80;99.90
23520;DHT22;11936;50.820;4.336;2023-09-07T11:04:05;25.80;99.90
23520;DHT22;11936;50.820;4.336;2023-09-07T11:06:33;25.90;99.90
23520;DHT22;11936;50.820;4.336;2023-09-07T11:09:00;25.80;99.90
23520;DHT22;11936;50.820;4.336;2023-09-07T11:11:26;25.90;99.90
23520;DHT22;11936;50.820;4.336;2023-09-07T11:13:52;26.00;99.90
23520;DHT22;11936;50.820;4.336;2023-09-07T11:16:18;26.00;99.90
23520;DHT22;11936;50.820;4.336;2023-09-07T11:18:45;26.10;99.90
23520;DHT22;11936;50.820;4.336;2023-09-07T11:21:11;26.10;99.90
23520;DHT22;11936;50.820;4.336;2023-09-07T11:23:37;26.20;99.90
23520;DHT22;11936;50.820;4.336;2023-09-07T11:26:07;26.20;99.90
23520;DHT22;11936;50.820;4.336;2023-09-07T11:28:33;26.30;99.90
23520;DHT22;11936;50.820;4.336;2023-09-07T11:30:58;26.30;99.90
23520;DHT22;11936;50.820;4.336;2023-09-07T11:33:25;26.30;99.90
23520;DHT22;11936;50.820;4.336;2023-09-07T11:35:52;26.40;99.90
23520;DHT22;11936;50.820;4.336;2023-09-07T11:38:20;26.50;99.90
23520;DHT22;11936;50.820;4.336;2023-09-07T11:40:45;26.50;99.90
23520;DHT22;11936;50.820;4.336;2023-09-07T11:43:16;26.60;99.90
23520;DHT22;11936;50.820;4.336;2023-09-07T11:45:42;26.60;99.90
23520;DHT22;11936;50.820;4.336;2023-09-07T11:48:08;26.60;99.90
23520;DHT22;11936;50.820;4.336;2023-09-07T11:50:35;26.60;99.90
23520;DHT22;11936;50.820;4.336;2023-09-07T11:53:01;26.60;99.90
23520;DHT22;11936;50.820;4.336;2023-09-07T11:55:26;26.60;99.90
23520;DHT22;11936;50.820;4.336;2023-09-07T11:57:52;26.80;99.90
23520;DHT22;11936;50.820;4.336;2023-09-07T12:00:18;26.80;99.90
23520;DHT22;11936;50.820;4.336;2023-09-07T12:02:44;26.80;99.90
23520;DHT22;11936;50.820;4.336;2023-09-07T12:05:10;26.90;99.90
23520;DHT22;11936;50.820;4.336;2023-09-07T12:07:40;26.90;99.90
23520;DHT22;11936;50.820;4.336;2023-09-07T12:10:06;26.90;99.90
23520;DHT22;11936;50.820;4.336;2023-09-07T12:12:39;26.90;99.90
23520;DHT22;11936;50.820;4.336;2023-09-07T12:15:05;27.00;99.90
23520;DHT22;11936;50.820;4.336;2023-09-07T12:17:32;27.00;99.90
23520;DHT22;11936;50.820;4.336;2023-09-07T12:19:57;27.00;99.90
23520;DHT22;11936;50.820;4.336;2023-09-07T12:22:23;27.00;99.90
23520;DHT22;11936;50.820;4.336;2023-09-07T12:24:49;27.10;99.90
23520;DHT22;11936;50.820;4.336;2023-09-07T12:27:15;27.20;99.90
23520;DHT22;11936;50.820;4.336;2023-09-07T12:29:41;27.30;99.90
23520;DHT22;11936;50.820;4.336;2023-09-07T12:32:08;27.30;99.90
23520;DHT22;11936;50.820;4.336;2023-09-07T12:34:33;27.30;99.90
23520;DHT22;11936;50.820;4.336;2023-09-07T12:36:59;27.40;99.90
23520;DHT22;11936;50.820;4.336;2023-09-07T12:39:24;27.50;99.90
23520;DHT22;11936;50.820;4.336;2023-09-07T12:41:51;27.60;99.90
23520;DHT22;11936;50.820;4.336;2023-09-07T12:44:16;27.60;99.90
23520;DHT22;11936;50.820;4.336;2023-09-07T12:46:43;27.50;99.90
23520;DHT22;11936;50.820;4.336;2023-09-07T12:49:09;27.50;99.70
23520;DHT22;11936;50.820;4.336;2023-09-07T12:51:35;27.50;99.70
23520;DHT22;11936;50.820;4.336;2023-09-07T12:54:01;27.60;99.90
23520;DHT22;11936;50.820;4.336;2023-09-07T12:56:26;27.70;99.50
23520;DHT22;11936;50.820;4.336;2023-09-07T12:58:52;27.80;99.50
23520;DHT22;11936;50.820;4.336;2023-09-07T13:01:18;27.90;99.80
23520;DHT22;11936;50.820;4.336;2023-09-07T13:03:44;27.90;98.70
23520;DHT22;11936;50.820;4.336;2023-09-07T13:06:10;27.90;99.40
23520;DHT22;11936;50.820;4.336;2023-09-07T13:08:36;27.80;99.30
23520;DHT22;11936;50.820;4.336;2023-09-07T13:11:01;27.80;98.50
23520;DHT22;11936;50.820;4.336;2023-09-07T13:13:27;27.90;97.80
23520;DHT22;11936;50.820;4.336;2023-09-07T13:15:58;27.90;98.60
23520;DHT22;11936;50.820;4.336;2023-09-07T13:18:24;28.00;98.70
23520;DHT22;11936;50.820;4.336;2023-09-07T13:20:52;28.00;97.90
23520;DHT22;11936;50.820;4.336;2023-09-07T13:23:27;28.10;98.70
23520;DHT22;11936;50.820;4.336;2023-09-07T13:25:54;28.00;98.50
23520;DHT22;11936;50.820;4.336;2023-09-07T13:28:21;28.10;98.20
23520;DHT22;11936;50.820;4.336;2023-09-07T13:30:46;28.10;98.50
23520;DHT22;11936;50.820;4.336;2023-09-07T13:33:12;28.20;98.50
23520;DHT22;11936;50.820;4.336;2023-09-07T13:35:38;28.20;98.50
23520;DHT22;11936;50.820;4.336;2023-09-07T13:38:05;28.20;99.30
23520;DHT22;11936;50.820;4.336;2023-09-07T13:40:31;28.20;99.50
23520;DHT22;11936;50.820;4.336;2023-09-07T13:42:56;28.20;98.30
23520;DHT22;11936;50.820;4.336;2023-09-07T13:45:23;28.30;98.90
23520;DHT22;11936;50.820;4.336;2023-09-07T13:47:48;28.30;99.30
23520;DHT22;11936;50.820;4.336;2023-09-07T13:50:14;28.30;99.50
23520;DHT22;11936;50.820;4.336;2023-09-07T13:52:40;28.30;99.30
23520;DHT22;11936;50.820;4.336;2023-09-07T13:55:06;28.40;98.50
23520;DHT22;11936;50.820;4.336;2023-09-07T13:57:34;28.40;98.70
23520;DHT22;11936;50.820;4.336;2023-09-07T14:00:00;28.60;99.00
23520;DHT22;11936;50.820;4.336;2023-09-07T14:02:26;28.60;98.80
23520;DHT22;11936;50.820;4.336;2023-09-07T14:04:51;28.50;98.50
23520;DHT22;11936;50.820;4.336;2023-09-07T14:07:17;28.60;98.40
23520;DHT22;11936;50.820;4.336;2023-09-07T14:09:43;28.70;98.50
23520;DHT22;11936;50.820;4.336;2023-09-07T14:12:09;28.80;98.30
23520;DHT22;11936;50.820;4.336;2023-09-07T14:14:35;28.80;98.50
23520;DHT22;11936;50.820;4.336;2023-09-07T14:17:00;28.90;98.50
23520;DHT22;11936;50.820;4.336;2023-09-07T14:19:26;29.10;98.30
23520;DHT22;11936;50.820;4.336;2023-09-07T14:21:59;29.10;98.10
23520;DHT22;11936;50.820;4.336;2023-09-07T14:24:25;29.20;98.20
23520;DHT22;11936;50.820;4.336;2023-09-07T14:26:51;29.30;98.20
23520;DHT22;11936;50.820;4.336;2023-09-07T14:29:17;29.30;98.40
23520;DHT22;11936;50.820;4.336;2023-09-07T14:31:42;29.40;98.10
23520;DHT22;11936;50.820;4.336;2023-09-07T14:34:12;29.50;97.70
23520;DHT22;11936;50.820;4.336;2023-09-07T14:36:38;29.60;98.00
23520;DHT22;11936;50.820;4.336;2023-09-07T14:39:06;29.60;97.70
23520;DHT22;11936;50.820;4.336;2023-09-07T14:41:32;29.60;97.50
23520;DHT22;11936;50.820;4.336;2023-09-07T14:43:59;29.60;97.80
23520;DHT22;11936;50.820;4.336;2023-09-07T14:46:25;29.70;97.80
23520;DHT22;11936;50.820;4.336;2023-09-07T14:48:51;29.50;97.50
23520;DHT22;11936;50.820;4.336;2023-09-07T14:51:17;29.60;97.10
23520;DHT22;11936;50.820;4.336;2023-09-07T14:53:42;29.70;97.10
23520;DHT22;11936;50.820;4.336;2023-09-07T14:56:09;29.70;97.20
23520;DHT22;11936;50.820;4.336;2023-09-07T14:58:35;29.70;96.70
23520;DHT22;11936;50.820;4.336;2023-09-07T15:01:03;29.80;96.50
23520;DHT22;11936;50.820;4.336;2023-09-07T15:03:32;29.90;96.50
23520;DHT22;11936;50.820;4.336;2023-09-07T15:05:58;30.00;96.80
23520;DHT22;11936;50.820;4.336;2023-09-07T15:08:24;30.10;96.50
23520;DHT22;11936;50.820;4.336;2023-09-07T15:10:50;30.10;96.80
23520;DHT22;11936;50.820;4.336;2023-09-07T15:13:16;30.00;96.50
23520;DHT22;11936;50.820;4.336;2023-09-07T15:15:42;30.00;96.30
23520;DHT22;11936;50.820;4.336;2023-09-07T15:18:08;30.10;96.60
23520;DHT22;11936;50.820;4.336;2023-09-07T15:20:34;30.10;96.60
23520;DHT22;11936;50.820;4.336;2023-09-07T15:22:59;30.20;97.40
23520;DHT22;11936;50.820;4.336;2023-09-07T15:25:25;30.20;96.50
23520;DHT22;11936;50.820;4.336;2023-09-07T15:27:52;30.20;96.80